Chelsea, MI (48118)

3:09 AM EDT on September 05, 2015 (GMT -0400)
Sylvan Crossing | | Change Station
CLOSE
Current Station
Personal Weather Station
Location: Chelsea, MI
Elevation: 902 ft
Nearby Weather Stations

Elev 902 ft 42.30 °N, 84.04 °W | Updated 7 seconds ago

Fog
Fog
66.0 °F
Feels Like 66.0 °F
N
0.0
Wind Variable Wind from SSW
Gusts 0.0 mph

Today
High -- | Low -- °F
--% Chance of Precip.
Yesterday
High -- | Low -- °F
Precip. -- in
7:05 AM 8:03 PM
Waning Gibbous, 51% visible
Pressure 30.06 in
Visibility 0.2 miles
Clouds Mostly Cloudy 100 ft
Overcast 4100 ft
Dew Point 66 °F
Humidity 99%
Rainfall 0.00 in
Snow Depth Not available.
UV 0.0 out of 12
Pollen 8.60 out of 12
Air Quality Not available.
Flu Activity Not available.
METAR KARB 050653Z AUTO 00000KT 1/4SM FG BKN001 OVC041 19/19 A3008 RMK AO2 SLP179 T01940189
Pressure 30.06 in
Visibility 0.2 miles
Clouds Mostly Cloudy 100 ft
Overcast 4100 ft
Dew Point 66 °F
Humidity 99%
Rainfall 0.00 in
Snow Depth Not available.
UV 0.0 out of 12
Pollen 8.60 out of 12
Air Quality Not available.
Flu Activity Not available.
METAR KARB 050653Z AUTO 00000KT 1/4SM FG BKN001 OVC041 19/19 A3008 RMK AO2 SLP179 T01940189

10-Day Weather Forecast

×

Almanac

Astronomy

Sep. 05, 2015 Rise Set
Actual Time
Civil Twilight
Nautical Twilight
Astronomical Twilight
Moon
Length of Visible Light
Length of Day
Tomorrow will be .
, % of the Moon is Illuminated

Today's Extremes

State Highs State Lows

Community

WunderPhotos

Upload Photos

1,852,430 photos uploaded!

WunderBlogs® & News

Nearby

Air Quality

  Air Quality AQ Index Pollutant
Not available.

Snow Depth

Station Depth Elevation

Earthquake Activity

City Distance Mag. Time & Date
Minimum magnitude displayed is 2.5.

Coastal Water Temperatures

Place Temperature

Stations

Nearby Weather Stations

Station Location Temp. Windchill Dew Point Humidity Wind Precip. Elev Updated Type